Time;durP1;ratioP1;P1;durP2;ratioP2;P2;SDS_P1;SDS_P2;PMS_P1;PMS_P2;Temp;Humidity;BMP_temperature;BMP_pressure;BME280_temperature;BME280_humidity;BME280_pressure;Samples;Min_cycle;Max_cycle;Signal;HPM_P1;HPM_P2
2022/05/17 00:00:04;;;;;;;7.70;1.90;;;16.40;99.90;;;;;;5070506;27;38713;-76
2022/05/17 00:02:30;;;;;;;7.20;2.28;;;16.40;99.90;;;;;;5073930;28;37789;-75
2022/05/17 00:04:56;;;;;;;5.00;2.22;;;16.30;99.90;;;;;;5073868;27;38056;-76
2022/05/17 00:07:22;;;;;;;7.93;2.67;;;16.30;99.90;;;;;;5069063;28;39298;-76
2022/05/17 00:09:48;;;;;;;8.95;2.60;;;16.30;99.90;;;;;;5055502;28;38288;-75
2022/05/17 00:12:14;;;;;;;7.10;2.58;;;16.30;99.90;;;;;;5064721;28;39040;-75
2022/05/17 00:14:40;;;;;;;8.75;2.95;;;16.20;99.90;;;;;;5070395;27;37380;-75
2022/05/17 00:17:09;;;;;;;8.57;2.83;;;16.20;99.90;;;;;;5072548;27;38742;-75
2022/05/17 00:19:35;;;;;;;8.48;3.08;;;16.20;99.90;;;;;;5074968;27;39507;-75
2022/05/17 00:22:02;;;;;;;8.23;3.08;;;16.10;99.90;;;;;;5058113;28;39733;-75
2022/05/17 00:24:28;;;;;;;5.38;2.67;;;16.00;99.90;;;;;;5086022;28;36197;-75
2022/05/17 00:26:54;;;;;;;6.35;2.45;;;16.00;99.90;;;;;;5051633;28;38716;-75
2022/05/17 00:29:20;;;;;;;7.43;3.13;;;16.00;99.90;;;;;;5046410;28;37350;-75
2022/05/17 00:31:47;;;;;;;6.90;2.78;;;16.00;99.90;;;;;;5074689;27;38396;-75
2022/05/17 00:34:13;;;;;;;7.47;2.70;;;16.00;99.90;;;;;;5054665;27;37383;-75
2022/05/17 00:36:40;;;;;;;5.40;2.28;;;15.90;99.90;;;;;;5067964;27;39027;-75
2022/05/17 00:39:07;;;;;;;7.65;2.72;;;15.90;99.90;;;;;;5068057;27;39042;-75
2022/05/17 00:41:33;;;;;;;6.88;2.50;;;16.00;99.90;;;;;;5069100;28;39110;-75
2022/05/17 00:47:05;;;;;;;8.77;2.67;;;16.00;99.90;;;;;;5070138;27;49058;-75
2022/05/17 00:49:58;;;;;;;6.55;2.67;;;15.90;99.90;;;;;;5064807;28;48697;-74
2022/05/17 00:52:28;;;;;;;7.13;2.50;;;15.90;99.90;;;;;;5076813;28;38880;-75
2022/05/17 00:54:59;;;;;;;6.03;2.70;;;15.90;99.90;;;;;;5075494;27;36272;-75
2022/05/17 00:57:35;;;;;;;7.25;2.42;;;15.90;99.90;;;;;;5075670;27;38826;-75
2022/05/17 01:00:08;;;;;;;8.50;2.30;;;15.80;99.90;;;;;;5065814;28;37402;-75
2022/05/17 01:02:35;;;;;;;5.97;2.40;;;15.80;99.90;;;;;;5074808;28;49120;-75
2022/05/17 01:05:03;;;;;;;9.38;2.90;;;15.80;99.90;;;;;;5065404;28;36047;-75
2022/05/17 01:07:45;;;;;;;11.30;2.83;;;15.70;99.90;;;;;;5053845;28;48375;-75
2022/05/17 01:10:12;;;;;;;5.18;2.28;;;15.70;99.90;;;;;;5046608;28;37374;-74
2022/05/17 01:12:40;;;;;;;6.60;3.20;;;15.70;99.90;;;;;;5060849;28;38175;-74
2022/05/17 01:15:11;;;;;;;8.52;2.72;;;15.70;99.90;;;;;;5052301;28;38362;-74
2022/05/17 01:17:40;;;;;;;7.25;2.78;;;15.60;99.90;;;;;;5054379;28;41169;-75
2022/05/17 01:20:13;;;;;;;6.70;2.28;;;15.60;99.90;;;;;;5047135;28;37554;-74
2022/05/17 01:22:39;;;;;;;5.20;2.42;;;15.60;99.90;;;;;;5055694;28;38770;-76
2022/05/17 01:25:05;;;;;;;7.15;2.50;;;15.50;99.90;;;;;;5050828;27;37663;-75
2022/05/17 01:27:40;;;;;;;8.20;2.63;;;15.50;99.90;;;;;;5054186;28;38859;-75
2022/05/17 01:30:06;;;;;;;7.10;2.72;;;15.40;99.90;;;;;;5049062;27;38343;-74
2022/05/17 01:32:33;;;;;;;8.75;2.85;;;15.40;99.90;;;;;;5048758;28;37810;-75
2022/05/17 01:34:59;;;;;;;4.90;2.65;;;15.40;99.90;;;;;;5049282;28;37175;-75
2022/05/17 01:37:25;;;;;;;8.57;4.07;;;15.40;99.90;;;;;;5045166;28;39890;-75
2022/05/17 01:39:52;;;;;;;7.07;2.60;;;15.40;99.90;;;;;;5046330;28;38652;-75
2022/05/17 01:42:18;;;;;;;4.78;3.10;;;15.40;99.90;;;;;;5048336;28;38972;-75
2022/05/17 01:44:45;;;;;;;9.68;3.53;;;15.40;99.90;;;;;;5043642;28;37655;-75
2022/05/17 01:47:12;;;;;;;9.57;2.95;;;15.40;99.90;;;;;;5041926;28;38840;-75
2022/05/17 01:49:38;;;;;;;9.43;3.05;;;15.40;99.90;;;;;;5039305;27;39047;-75
2022/05/17 01:52:04;;;;;;;9.40;3.53;;;15.40;99.90;;;;;;5045592;28;40229;-74
2022/05/17 01:54:30;;;;;;;8.02;4.20;;;15.40;99.90;;;;;;5067945;28;36508;-75
2022/05/17 01:56:56;;;;;;;6.88;3.33;;;15.30;99.90;;;;;;5074253;27;39430;-74
2022/05/17 01:59:22;;;;;;;8.10;3.30;;;15.30;99.90;;;;;;5072041;27;39011;-75
2022/05/17 02:01:49;;;;;;;7.20;3.53;;;15.30;99.90;;;;;;5080279;27;38739;-75
2022/05/17 02:04:15;;;;;;;9.48;3.30;;;15.30;99.90;;;;;;5053380;28;37711;-75
2022/05/17 02:06:42;;;;;;;8.10;3.20;;;15.20;99.90;;;;;;5050029;28;38939;-74
2022/05/17 02:09:08;;;;;;;8.85;3.65;;;15.20;99.90;;;;;;5045724;28;39075;-74
2022/05/17 02:11:34;;;;;;;6.10;3.78;;;15.10;99.90;;;;;;5040451;28;39822;-75
2022/05/17 02:14:01;;;;;;;9.15;3.60;;;15.10;99.90;;;;;;5042066;28;38718;-75
2022/05/17 02:16:28;;;;;;;7.15;3.30;;;15.10;99.90;;;;;;5102108;27;39791;-75
2022/05/17 02:18:54;;;;;;;6.45;3.22;;;15.20;99.90;;;;;;5064418;28;39195;-74
2022/05/17 02:21:20;;;;;;;9.07;3.72;;;15.20;99.90;;;;;;5044744;28;38256;-75
2022/05/17 02:23:46;;;;;;;8.20;3.13;;;15.20;99.90;;;;;;5053467;28;36835;-75
2022/05/17 02:26:12;;;;;;;10.20;3.63;;;15.20;99.90;;;;;;5055714;28;39580;-75
2022/05/17 02:28:42;;;;;;;7.50;3.60;;;15.30;99.90;;;;;;5067758;27;39127;-75
2022/05/17 02:31:11;;;;;;;6.95;3.30;;;15.30;99.90;;;;;;5067742;28;39209;-75
2022/05/17 02:33:38;;;;;;;6.43;3.47;;;15.40;99.90;;;;;;5071530;28;37492;-75
2022/05/17 02:36:04;;;;;;;5.28;3.20;;;15.40;99.90;;;;;;5058874;28;39601;-75
2022/05/17 02:38:30;;;;;;;6.28;3.55;;;15.40;99.90;;;;;;5058522;28;38463;-74
2022/05/17 02:40:56;;;;;;;5.80;3.35;;;15.50;99.90;;;;;;5062988;28;38957;-75
2022/05/17 02:43:22;;;;;;;6.70;3.13;;;15.50;99.90;;;;;;5063638;27;36988;-74
2022/05/17 02:45:49;;;;;;;7.78;3.47;;;15.50;99.90;;;;;;5059408;28;39352;-74
2022/05/17 02:48:15;;;;;;;4.53;3.20;;;15.40;99.90;;;;;;5056884;28;38978;-75
2022/05/17 02:50:41;;;;;;;9.65;3.45;;;15.40;99.90;;;;;;5059087;28;39119;-75
2022/05/17 02:53:07;;;;;;;4.40;3.08;;;15.40;99.90;;;;;;5066487;27;38474;-75
2022/05/17 02:55:33;;;;;;;4.97;3.20;;;15.40;99.90;;;;;;5065896;28;39622;-75
2022/05/17 02:57:59;;;;;;;6.45;3.47;;;15.40;99.90;;;;;;5095480;27;37376;-74
2022/05/17 03:00:26;;;;;;;7.70;3.85;;;15.30;99.90;;;;;;5063187;28;40002;-75
2022/05/17 03:02:52;;;;;;;9.60;4.25;;;15.30;99.90;;;;;;5069902;28;37956;-74
2022/05/17 03:05:19;;;;;;;6.13;3.28;;;15.30;99.90;;;;;;5070069;28;39846;-75
2022/05/17 03:07:45;;;;;;;7.40;3.75;;;15.30;99.90;;;;;;5071066;28;42164;-75
2022/05/17 03:10:12;;;;;;;7.70;3.90;;;15.30;99.90;;;;;;5063794;28;38112;-75
2022/05/17 03:12:38;;;;;;;10.10;3.95;;;15.30;99.90;;;;;;5082565;27;37127;-75
2022/05/17 03:15:06;;;;;;;5.00;3.80;;;15.30;99.90;;;;;;5071665;27;39500;-74
2022/05/17 03:17:32;;;;;;;9.10;4.38;;;15.30;99.90;;;;;;5072912;28;38011;-75
2022/05/17 03:19:58;;;;;;;7.72;3.90;;;15.30;99.90;;;;;;5071521;28;38826;-75
2022/05/17 03:22:24;;;;;;;7.57;4.18;;;15.40;99.90;;;;;;5077155;28;37837;-75
2022/05/17 03:24:51;;;;;;;7.97;3.95;;;15.40;99.90;;;;;;5066224;27;39805;-75
2022/05/17 03:27:19;;;;;;;10.23;4.30;;;15.50;99.90;;;;;;5080519;27;39644;-74
2022/05/17 03:29:46;;;;;;;9.52;4.72;;;15.50;99.90;;;;;;5064593;28;37859;-75
2022/05/17 03:32:12;;;;;;;7.30;3.92;;;15.50;99.90;;;;;;5076056;28;38112;-75
2022/05/17 03:34:38;;;;;;;10.07;3.67;;;15.50;99.90;;;;;;5058203;28;39657;-75
2022/05/17 03:37:04;;;;;;;6.72;3.85;;;15.60;99.90;;;;;;5051650;28;39166;-75
2022/05/17 03:39:30;;;;;;;9.48;4.55;;;15.60;99.90;;;;;;5051688;28;38732;-75
2022/05/17 03:41:57;;;;;;;7.53;4.47;;;15.60;99.90;;;;;;5055075;28;37935;-75
2022/05/17 03:44:23;;;;;;;9.23;4.20;;;15.60;99.90;;;;;;5060441;27;39056;-75
2022/05/17 03:46:49;;;;;;;8.30;3.92;;;15.70;99.90;;;;;;5055850;28;38081;-75
2022/05/17 03:49:15;;;;;;;8.65;3.70;;;15.70;99.90;;;;;;5048013;28;39206;-74
2022/05/17 03:51:41;;;;;;;11.25;3.97;;;15.70;99.90;;;;;;5071536;27;36915;-75
2022/05/17 03:54:07;;;;;;;8.48;3.47;;;15.80;99.90;;;;;;5070668;28;39839;-75
2022/05/17 03:56:33;;;;;;;8.05;4.13;;;15.80;99.90;;;;;;5080792;28;41039;-75
2022/05/17 03:58:59;;;;;;;6.20;3.13;;;15.90;99.90;;;;;;5073840;27;37846;-75
2022/05/17 04:01:25;;;;;;;8.80;3.22;;;15.90;99.90;;;;;;5093728;27;38017;-75
2022/05/17 04:03:51;;;;;;;7.97;3.10;;;16.00;99.90;;;;;;5076946;28;38817;-75
2022/05/17 04:06:21;;;;;;;11.82;3.60;;;16.00;99.90;;;;;;5066714;28;38889;-75
2022/05/17 04:08:48;;;;;;;6.88;3.03;;;16.00;99.90;;;;;;5068581;28;38606;-75
2022/05/17 04:11:14;;;;;;;6.90;3.17;;;16.00;99.90;;;;;;5068615;28;36772;-75
2022/05/17 04:13:40;;;;;;;7.20;2.80;;;16.00;99.90;;;;;;5072432;28;37536;-75
2022/05/17 04:16:06;;;;;;;11.52;3.25;;;16.10;99.90;;;;;;5080195;27;39036;-74
2022/05/17 04:18:32;;;;;;;7.03;3.22;;;16.10;99.90;;;;;;5072524;28;38946;-75
2022/05/17 04:21:00;;;;;;;7.20;2.30;;;16.20;99.90;;;;;;5065668;28;37770;-75
2022/05/17 04:23:26;;;;;;;3.45;2.17;;;16.20;99.90;;;;;;5069942;27;38449;-75
2022/05/17 04:25:52;;;;;;;9.10;2.30;;;16.30;99.90;;;;;;5073161;27;38953;-75
2022/05/17 04:28:18;;;;;;;6.88;2.40;;;16.30;99.90;;;;;;5069787;28;38432;-75
2022/05/17 04:30:45;;;;;;;7.85;2.30;;;16.30;99.90;;;;;;5086276;27;38121;-75
2022/05/17 04:33:12;;;;;;;8.18;2.58;;;16.40;99.90;;;;;;5073920;28;39006;-75
2022/05/17 04:35:39;;;;;;;6.40;2.25;;;16.40;99.90;;;;;;5084215;28;40183;-75
2022/05/17 04:38:06;;;;;;;5.82;2.05;;;16.40;99.90;;;;;;5074284;27;38033;-75
2022/05/17 04:40:34;;;;;;;7.80;2.50;;;16.50;99.90;;;;;;5066919;28;38302;-75
2022/05/17 04:43:00;;;;;;;7.60;2.65;;;16.50;99.90;;;;;;5072792;28;41126;-75
2022/05/17 04:45:27;;;;;;;8.52;2.63;;;16.60;99.90;;;;;;5075225;27;39472;-75
2022/05/17 04:47:53;;;;;;;8.82;2.40;;;16.60;99.90;;;;;;5078379;28;37102;-76
2022/05/17 04:50:19;;;;;;;6.15;2.40;;;16.60;99.90;;;;;;5089169;27;36294;-75
2022/05/17 04:52:47;;;;;;;10.32;2.63;;;16.60;99.90;;;;;;5077032;28;39696;-76
2022/05/17 04:55:16;;;;;;;9.32;3.13;;;16.60;99.90;;;;;;5069975;28;39676;-76
2022/05/17 04:57:42;;;;;;;6.82;2.42;;;16.60;99.90;;;;;;5062132;28;36806;-76
2022/05/17 05:00:15;;;;;;;8.90;2.30;;;16.60;99.90;;;;;;5080794;27;37996;-76
2022/05/17 05:02:42;;;;;;;6.10;2.53;;;16.60;99.90;;;;;;5064425;28;40562;-75
2022/05/17 05:05:08;;;;;;;5.18;2.30;;;16.70;99.90;;;;;;5068015;27;38964;-75
2022/05/17 05:07:34;;;;;;;4.88;2.92;;;16.70;99.90;;;;;;5069425;28;37203;-76
2022/05/17 05:10:00;;;;;;;9.32;2.58;;;16.70;99.90;;;;;;5066133;27;37304;-75
2022/05/17 05:12:27;;;;;;;5.00;2.58;;;16.60;99.90;;;;;;5075312;28;39427;-75
2022/05/17 05:14:53;;;;;;;6.15;2.53;;;16.70;99.90;;;;;;5075990;28;39555;-75
2022/05/17 05:17:19;;;;;;;6.72;2.47;;;16.70;99.90;;;;;;5076754;27;37952;-75
2022/05/17 05:19:45;;;;;;;5.38;2.47;;;16.60;99.90;;;;;;5068049;27;36781;-76
2022/05/17 05:22:11;;;;;;;5.63;2.15;;;16.60;99.90;;;;;;5067282;27;38898;-76
2022/05/17 05:24:37;;;;;;;5.88;2.35;;;16.70;99.90;;;;;;5080822;27;37203;-76
2022/05/17 05:27:04;;;;;;;7.05;2.33;;;16.60;99.90;;;;;;5067741;27;38967;-76
2022/05/17 05:29:30;;;;;;;8.05;2.55;;;16.60;99.90;;;;;;5079319;28;38978;-76
2022/05/17 05:31:56;;;;;;;8.20;3.10;;;16.60;99.90;;;;;;5075918;28;39361;-76
2022/05/17 05:34:22;;;;;;;7.05;2.47;;;16.60;99.90;;;;;;5074177;27;38384;-76
2022/05/17 05:36:49;;;;;;;12.55;2.85;;;16.50;99.90;;;;;;5088207;28;39202;-76
2022/05/17 05:39:15;;;;;;;13.73;3.08;;;16.50;99.90;;;;;;5064653;28;38555;-75
2022/05/17 05:41:42;;;;;;;11.73;3.28;;;16.50;99.90;;;;;;5073973;28;37480;-76
2022/05/17 05:44:08;;;;;;;9.02;3.28;;;16.40;99.90;;;;;;5073491;27;38495;-75
2022/05/17 05:46:34;;;;;;;8.27;3.35;;;16.40;99.90;;;;;;5074506;28;38145;-75
2022/05/17 05:49:00;;;;;;;9.98;2.92;;;16.50;99.90;;;;;;5072829;27;38049;-75
2022/05/17 05:51:26;;;;;;;8.25;2.50;;;16.40;99.90;;;;;;5073245;28;38810;-79
2022/05/17 05:53:53;;;;;;;10.73;3.08;;;16.40;99.90;;;;;;5063085;27;38902;-77
2022/05/17 05:56:19;;;;;;;10.52;3.05;;;16.50;99.90;;;;;;5068833;28;37959;-79
2022/05/17 05:58:45;;;;;;;13.35;3.28;;;16.50;99.90;;;;;;5072670;28;38309;-78
2022/05/17 06:01:12;;;;;;;7.65;2.72;;;16.40;99.90;;;;;;5074422;28;38593;-76
2022/05/17 06:03:38;;;;;;;7.35;2.70;;;16.30;99.90;;;;;;5067928;28;38489;-78
2022/05/17 06:06:07;;;;;;;9.48;3.40;;;16.40;99.90;;;;;;5075021;28;38797;-78
2022/05/17 06:08:34;;;;;;;12.85;3.72;;;16.40;99.90;;;;;;5071208;28;40340;-79
2022/05/17 06:11:01;;;;;;;8.48;2.20;;;16.40;99.90;;;;;;5071939;28;40562;-79
2022/05/17 06:13:28;;;;;;;7.32;2.63;;;16.40;99.90;;;;;;5070443;28;46902;-78
2022/05/17 06:15:54;;;;;;;5.28;2.20;;;16.40;99.90;;;;;;5066042;28;38049;-79
2022/05/17 06:18:21;;;;;;;7.07;2.20;;;16.50;99.90;;;;;;5064709;28;37900;-79
2022/05/17 06:20:52;;;;;;;7.15;2.60;;;16.50;99.90;;;;;;5072182;28;38430;-78
2022/05/17 06:23:20;;;;;;;7.88;2.83;;;16.70;99.90;;;;;;5069467;28;38302;-78
2022/05/17 06:25:46;;;;;;;9.20;2.40;;;16.60;99.90;;;;;;5071877;28;38372;-78
2022/05/17 06:28:12;;;;;;;9.10;2.17;;;16.70;99.90;;;;;;5066858;28;37286;-77
2022/05/17 06:30:41;;;;;;;5.90;2.45;;;16.70;99.90;;;;;;5077291;28;37495;-77
2022/05/17 06:33:12;;;;;;;8.52;2.60;;;16.60;99.90;;;;;;5092816;27;39759;-77
2022/05/17 06:35:39;;;;;;;9.43;2.50;;;16.70;99.90;;;;;;5074819;28;37911;-78
2022/05/17 06:38:05;;;;;;;6.80;2.55;;;16.70;99.90;;;;;;5067438;28;37737;-77
2022/05/17 06:40:32;;;;;;;7.05;2.47;;;16.80;99.90;;;;;;5068961;28;40473;-78
2022/05/17 06:42:59;;;;;;;7.85;2.30;;;16.80;99.90;;;;;;5068198;28;38854;-77
2022/05/17 06:45:26;;;;;;;6.25;2.80;;;16.90;99.90;;;;;;5064994;28;37239;-77
2022/05/17 06:47:52;;;;;;;8.30;2.75;;;16.90;99.90;;;;;;5069381;28;37720;-77
2022/05/17 06:50:19;;;;;;;6.03;2.33;;;17.00;99.90;;;;;;5062541;28;38764;-77
2022/05/17 06:52:45;;;;;;;6.93;2.50;;;17.10;99.90;;;;;;5072272;28;39042;-77
2022/05/17 06:55:12;;;;;;;9.80;3.00;;;17.20;99.90;;;;;;5074861;28;39187;-77
2022/05/17 06:57:40;;;;;;;7.32;2.53;;;17.20;99.90;;;;;;5068245;28;38067;-77
2022/05/17 07:00:09;;;;;;;6.25;2.15;;;17.20;99.90;;;;;;5068398;28;38626;-77
2022/05/17 07:02:36;;;;;;;7.93;2.40;;;17.20;99.90;;;;;;5074778;28;39157;-76
2022/05/17 07:05:03;;;;;;;7.55;1.88;;;17.30;99.90;;;;;;5066553;28;40318;-77
2022/05/17 07:07:29;;;;;;;6.78;2.50;;;17.40;99.90;;;;;;5064151;28;47706;-76
2022/05/17 07:15:25;;;;;;;3.88;1.70;;;17.60;99.90;;;;;;5070380;28;39405;-77
2022/05/17 07:17:51;;;;;;;9.45;2.42;;;17.60;99.90;;;;;;5072644;28;36537;-77
2022/05/17 07:20:17;;;;;;;9.40;3.38;;;17.50;99.90;;;;;;5074277;28;37606;-77
2022/05/17 07:22:43;;;;;;;4.38;1.73;;;17.60;99.90;;;;;;5069690;28;39212;-77
2022/05/17 07:25:10;;;;;;;5.18;1.88;;;17.70;99.90;;;;;;5062406;28;37841;-77
2022/05/17 07:27:36;;;;;;;6.38;1.85;;;17.90;99.90;;;;;;5068282;28;37060;-76
2022/05/17 07:30:04;;;;;;;6.03;1.73;;;18.00;99.90;;;;;;5067072;28;39095;-77
2022/05/17 07:32:30;;;;;;;9.77;2.47;;;18.00;99.90;;;;;;5072778;28;38828;-77
2022/05/17 07:34:56;;;;;;;8.80;2.65;;;18.00;99.90;;;;;;5082043;28;38877;-77
2022/05/17 07:37:22;;;;;;;6.75;2.38;;;18.10;99.90;;;;;;5060194;28;38563;-76
2022/05/17 07:39:48;;;;;;;6.95;2.55;;;18.30;99.90;;;;;;5078027;28;39357;-77
2022/05/17 07:42:15;;;;;;;7.00;2.22;;;18.30;99.90;;;;;;5080278;27;37475;-76
2022/05/17 07:44:41;;;;;;;9.50;2.40;;;18.50;99.90;;;;;;5082755;28;38014;-76
2022/05/17 07:47:08;;;;;;;8.60;3.60;;;19.10;99.90;;;;;;5080713;28;37219;-76
2022/05/17 07:49:35;;;;;;;7.25;2.90;;;19.60;99.90;;;;;;5082801;28;38382;-77
2022/05/17 07:52:02;;;;;;;7.65;3.67;;;19.90;99.90;;;;;;5078252;27;38593;-76
2022/05/17 07:54:28;;;;;;;7.53;3.08;;;20.30;99.90;;;;;;5079667;28;48860;-76
2022/05/17 07:56:54;;;;;;;10.05;2.50;;;20.20;99.90;;;;;;5080920;28;36144;-76
2022/05/17 07:59:20;;;;;;;6.60;2.50;;;20.20;99.90;;;;;;5082752;28;38975;-76
2022/05/17 08:01:46;;;;;;;7.68;2.80;;;20.10;99.90;;;;;;5079419;28;37625;-76
2022/05/17 08:04:12;;;;;;;6.38;3.38;;;20.10;99.90;;;;;;5080607;27;37844;-76
2022/05/17 08:06:39;;;;;;;8.70;3.08;;;20.00;99.90;;;;;;5078788;28;37041;-76
2022/05/17 08:09:05;;;;;;;6.88;2.78;;;20.20;99.90;;;;;;5078945;27;39803;-76
2022/05/17 08:11:32;;;;;;;5.85;2.42;;;20.30;99.90;;;;;;5061146;28;37414;-76
2022/05/17 08:13:58;;;;;;;7.15;2.38;;;20.40;99.90;;;;;;5067553;28;38406;-77
2022/05/17 08:16:24;;;;;;;8.85;2.20;;;20.40;99.90;;;;;;5070740;28;36779;-76
2022/05/17 08:18:53;;;;;;;7.38;2.33;;;20.40;99.90;;;;;;5079653;28;37616;-78
2022/05/17 08:21:20;;;;;;;6.20;2.17;;;20.10;99.90;;;;;;5072606;28;37399;-77
2022/05/17 08:23:46;;;;;;;8.40;3.10;;;19.90;99.90;;;;;;5086877;27;36784;-77
2022/05/17 08:28:57;;;;;;;7.68;2.55;;;20.00;99.90;;;;;;5070623;28;40076;-77
2022/05/17 08:31:23;;;;;;;7.47;2.40;;;20.00;99.90;;;;;;5064747;27;38329;-76
2022/05/17 08:33:50;;;;;;;6.93;2.33;;;20.00;99.90;;;;;;5074865;27;38053;-76
2022/05/17 08:36:18;;;;;;;9.07;2.47;;;20.10;99.90;;;;;;5078980;28;36076;-77
2022/05/17 08:38:49;;;;;;;4.57;2.05;;;20.10;99.90;;;;;;5074136;28;39545;-77
2022/05/17 08:41:26;;;;;;;6.80;1.90;;;20.20;99.90;;;;;;5089828;27;37168;-77
2022/05/17 08:44:06;;;;;;;4.70;2.00;;;20.60;99.90;;;;;;5076970;28;38154;-77
2022/05/17 08:47:11;;;;;;;5.90;2.05;;;20.70;99.90;;;;;;5078002;28;47103;-77
2022/05/17 08:49:55;;;;;;;8.20;2.60;;;20.80;99.90;;;;;;5086551;28;47683;-77
2022/05/17 08:52:24;;;;;;;7.78;2.50;;;21.00;99.90;;;;;;5077010;27;37835;-77
2022/05/17 08:55:15;;;;;;;8.85;2.17;;;20.90;99.90;;;;;;5072697;27;37985;-77
2022/05/17 08:57:42;;;;;;;8.43;2.90;;;20.80;99.90;;;;;;5081039;27;48567;-77
2022/05/17 09:00:18;;;;;;;7.63;2.67;;;21.10;99.90;;;;;;5069456;28;39250;-76
2022/05/17 09:02:50;;;;;;;8.10;2.70;;;21.20;99.90;;;;;;5084499;28;37652;-77
2022/05/17 09:05:33;;;;;;;7.22;2.75;;;21.20;99.90;;;;;;5082702;27;37993;-77
2022/05/17 09:08:33;;;;;;;9.02;2.72;;;21.60;99.90;;;;;;5096969;28;36059;-77
2022/05/17 09:11:26;;;;;;;6.55;2.20;;;22.00;99.90;;;;;;5079099;28;47067;-78
2022/05/17 09:14:27;;;;;;;9.27;2.38;;;21.90;99.90;;;;;;5079841;28;46908;-79
2022/05/17 09:17:11;;;;;;;7.50;2.25;;;21.50;99.90;;;;;;5078124;28;48688;-77
2022/05/17 09:19:40;;;;;;;6.00;1.90;;;21.60;99.90;;;;;;5075815;28;47281;-77
2022/05/17 09:22:06;;;;;;;7.53;2.10;;;22.20;99.90;;;;;;5081640;28;39066;-78
2022/05/17 09:24:42;;;;;;;7.13;1.92;;;22.50;99.90;;;;;;5075295;28;37220;-77
2022/05/17 09:27:12;;;;;;;8.32;2.38;;;23.00;99.90;;;;;;5080948;27;39240;-77
2022/05/17 09:29:45;;;;;;;5.40;1.95;;;23.00;99.90;;;;;;5074971;28;36111;-77
2022/05/17 09:32:21;;;;;;;4.78;2.20;;;22.70;99.90;;;;;;5072469;28;38389;-77
2022/05/17 09:34:59;;;;;;;6.28;2.30;;;22.70;99.90;;;;;;5076529;27;39264;-77
2022/05/17 09:37:33;;;;;;;5.45;2.13;;;22.30;99.90;;;;;;5076245;28;37179;-77
2022/05/17 09:40:02;;;;;;;5.63;2.15;;;22.50;99.90;;;;;;5077393;27;37963;-77
2022/05/17 09:42:42;;;;;;;9.75;2.90;;;22.80;99.90;;;;;;5079440;28;48493;-77
2022/05/17 09:45:15;;;;;;;5.38;2.33;;;23.40;99.90;;;;;;5081973;27;37826;-77
2022/05/17 09:47:53;;;;;;;7.50;2.20;;;23.40;99.90;;;;;;5075652;28;38364;-78
2022/05/17 09:53:07;;;;;;;8.10;2.60;;;24.00;99.90;;;;;;5080383;27;40043;-78
2022/05/17 09:55:34;;;;;;;5.68;1.95;;;24.30;99.90;;;;;;5080345;28;39329;-77
2022/05/17 09:58:05;;;;;;;5.32;2.63;;;24.30;99.90;;;;;;5084408;28;37884;-77
2022/05/17 10:00:42;;;;;;;8.43;2.22;;;24.30;99.90;;;;;;5057984;28;48520;-77
2022/05/17 10:03:38;;;;;;;4.65;2.10;;;24.00;99.90;;;;;;5052344;27;39015;-78
2022/05/17 10:06:08;;;;;;;5.00;2.08;;;24.20;99.90;;;;;;5053561;27;38629;-78
2022/05/17 10:08:46;;;;;;;8.27;2.20;;;23.90;99.90;;;;;;5054683;27;36955;-79
2022/05/17 10:11:22;;;;;;;7.07;2.08;;;24.10;99.90;;;;;;5089681;27;36004;-78
2022/05/17 10:14:04;;;;;;;6.00;2.42;;;23.60;99.90;;;;;;5071127;27;37782;-79
2022/05/17 10:16:40;;;;;;;7.68;2.20;;;22.80;99.90;;;;;;5053417;28;47458;-77
2022/05/17 10:19:33;;;;;;;6.63;2.33;;;23.20;99.90;;;;;;5056223;27;38118;-77
2022/05/17 10:22:04;;;;;;;6.28;2.35;;;24.00;99.90;;;;;;5061249;28;36475;-77
2022/05/17 10:24:45;;;;;;;6.38;2.92;;;24.30;99.90;;;;;;5068674;27;47138;-77
2022/05/17 10:27:23;;;;;;;6.70;2.67;;;24.30;99.90;;;;;;5071129;28;39209;-77
2022/05/17 10:29:56;;;;;;;6.25;2.80;;;24.70;99.90;;;;;;5071111;28;36629;-77
2022/05/17 10:32:57;;;;;;;6.38;2.53;;;24.70;99.90;;;;;;5076373;28;37513;-78
2022/05/17 10:35:42;;;;;;;7.43;2.70;;;24.10;99.90;;;;;;5066912;28;37764;-77
2022/05/17 10:38:17;;;;;;;5.18;2.72;;;24.00;99.90;;;;;;5069784;28;37834;-78
2022/05/17 10:40:47;;;;;;;8.27;3.25;;;24.20;99.90;;;;;;5070235;28;37953;-75
2022/05/17 10:43:29;;;;;;;9.02;3.35;;;24.80;99.90;;;;;;5073293;28;37265;-78
2022/05/17 10:46:04;;;;;;;6.15;3.50;;;24.80;99.90;;;;;;5076827;28;38973;-83
2022/05/17 10:48:58;;;;;;;6.60;2.83;;;25.00;99.90;;;;;;5083297;28;48778;-79
2022/05/17 10:51:43;;;;;;;7.30;3.03;;;24.70;99.90;;;;;;5075359;27;37904;-79
2022/05/17 10:54:30;;;;;;;5.35;2.83;;;25.10;99.90;;;;;;5095348;27;37483;-80
2022/05/17 10:57:22;;;;;;;6.22;3.33;;;25.20;99.90;;;;;;5086077;27;38983;-80
2022/05/17 11:00:18;;;;;;;7.97;3.60;;;25.00;99.90;;;;;;5083325;28;48165;-81
2022/05/17 11:03:12;;;;;;;8.27;3.83;;;25.30;99.90;;;;;;5080313;28;47753;-80
2022/05/17 11:06:02;;;;;;;7.40;3.83;;;24.90;99.90;;;;;;5094361;27;47366;-79
2022/05/17 11:08:52;;;;;;;7.53;3.35;;;25.00;99.90;;;;;;5079874;28;48760;-78
2022/05/17 11:11:43;;;;;;;8.88;3.92;;;24.90;99.90;;;;;;5078074;28;39174;-80
2022/05/17 11:14:32;;;;;;;9.23;4.17;;;25.00;99.90;;;;;;5082015;27;38867;-78
2022/05/17 11:17:17;;;;;;;11.20;4.63;;;25.60;99.90;;;;;;5071971;27;37259;-80
2022/05/17 11:19:52;;;;;;;7.03;4.25;;;25.50;99.90;;;;;;5091010;28;46594;-82
2022/05/17 11:22:30;;;;;;;8.50;4.60;;;25.00;99.90;;;;;;5085297;28;40158;-79
2022/05/17 11:25:36;;;;;;;9.40;4.25;;;25.40;99.90;;;;;;5088608;28;39931;-80
2022/05/17 11:28:31;;;;;;;7.20;3.40;;;25.50;99.90;;;;;;5079433;28;48388;-79
2022/05/17 11:31:42;;;;;;;7.03;3.35;;;25.70;99.90;;;;;;5079659;28;39962;-79
2022/05/17 11:34:23;;;;;;;8.80;4.18;;;26.00;99.90;;;;;;5068919;28;47219;-79
2022/05/17 11:36:51;;;;;;;9.57;3.67;;;26.50;99.90;;;;;;5092422;27;37504;-80
2022/05/17 11:39:50;;;;;;;7.45;4.28;;;26.80;99.90;;;;;;5080230;28;36838;-79
2022/05/17 11:43:40;;;;;;;6.85;3.80;;;26.50;99.90;;;;;;5079642;27;39507;-80
2022/05/17 11:45:50;;;;;;;9.30;3.53;;;26.20;99.90;;;;;;5076238;28;37851;-80
2022/05/17 11:48:19;;;;;;;6.38;2.72;;;26.60;99.90;;;;;;5059022;28;39370;-79
2022/05/17 11:50:56;;;;;;;9.32;3.55;;;27.20;99.90;;;;;;5063888;27;37495;-80
2022/05/17 11:53:22;;;;;;;10.85;3.85;;;27.20;99.90;;;;;;5060809;27;38356;-81
2022/05/17 11:56:24;;;;;;;8.00;3.33;;;27.00;99.90;;;;;;5056042;27;39140;-80
2022/05/17 11:59:21;;;;;;;8.13;3.53;;;26.60;99.90;;;;;;5010339;28;48469;-80
2022/05/17 12:01:50;;;;;;;6.95;3.05;;;26.30;99.90;;;;;;5072061;28;48705;-79
2022/05/17 12:04:23;;;;;;;8.57;3.20;;;26.30;99.90;;;;;;5092937;27;39146;-79
2022/05/17 12:06:49;;;;;;;7.65;3.00;;;26.70;99.90;;;;;;5083886;28;38475;-79
2022/05/17 12:09:29;;;;;;;8.68;3.13;;;27.20;99.90;;;;;;5100638;27;39032;-79
2022/05/17 12:11:58;;;;;;;5.20;2.58;;;26.80;99.90;;;;;;5087754;28;37559;-81
2022/05/17 12:14:29;;;;;;;6.70;2.95;;;26.20;99.90;;;;;;5087977;27;39797;-79
2022/05/17 12:16:59;;;;;;;6.63;3.00;;;25.90;99.90;;;;;;5088766;27;39180;-78
2022/05/17 12:19:40;;;;;;;15.63;3.80;;;26.90;99.90;;;;;;5076703;28;38527;-78
2022/05/17 12:22:12;;;;;;;6.38;2.58;;;27.30;99.90;;;;;;5090998;27;37268;-79
2022/05/17 12:24:51;;;;;;;5.13;2.55;;;27.10;99.90;;;;;;5072657;28;39964;-80
2022/05/17 12:27:24;;;;;;;4.97;2.78;;;26.70;99.90;;;;;;5077071;27;38654;-77
2022/05/17 12:33:09;;;;;;;7.18;2.25;;;27.30;99.90;;;;;;5060664;28;49114;-79
2022/05/17 12:35:36;;;;;;;7.80;2.72;;;26.60;99.90;;;;;;5065261;27;38916;-80
2022/05/17 12:43:02;;;;;;;5.88;3.03;;;26.60;99.90;;;;;;5062119;28;37761;-79
2022/05/17 12:43:37;;;;;;;4.63;2.80;;;25.60;99.90;;;;;;5067652;27;49593;-79
2022/05/17 12:46:15;;;;;;;7.40;2.88;;;25.50;99.90;;;;;;5061749;27;39846;-78
2022/05/17 12:48:42;;;;;;;5.78;2.90;;;25.70;99.90;;;;;;5081703;27;38375;-80
2022/05/17 12:51:10;;;;;;;8.07;2.60;;;26.30;99.90;;;;;;5070715;28;37102;-76
2022/05/17 12:53:43;;;;;;;5.68;3.00;;;26.70;99.90;;;;;;5081741;28;38051;-80
2022/05/17 12:56:24;;;;;;;6.70;3.05;;;26.70;99.90;;;;;;5087605;27;39040;-80
2022/05/17 12:58:56;;;;;;;5.30;2.80;;;26.60;99.90;;;;;;5077855;28;39361;-80
2022/05/17 13:01:31;;;;;;;4.15;2.95;;;26.70;99.90;;;;;;5082585;28;37872;-81
2022/05/17 13:04:04;;;;;;;4.30;2.70;;;26.50;99.90;;;;;;5088186;28;37164;-79
2022/05/17 13:06:50;;;;;;;5.97;2.50;;;25.90;99.90;;;;;;5082096;27;47458;-80
2022/05/17 13:09:25;;;;;;;5.68;2.97;;;26.30;99.90;;;;;;5079262;28;39032;-79
2022/05/17 13:11:53;;;;;;;4.40;2.33;;;26.20;99.90;;;;;;5078228;28;38418;-78
2022/05/17 13:14:23;;;;;;;6.05;2.40;;;26.30;99.90;;;;;;5085718;27;38472;-79
2022/05/17 13:16:51;;;;;;;6.57;2.67;;;26.30;99.90;;;;;;5082684;27;39445;-80
2022/05/17 13:19:23;;;;;;;6.60;3.00;;;26.50;99.90;;;;;;5073628;28;38262;-80
2022/05/17 13:21:51;;;;;;;6.85;3.35;;;26.40;99.90;;;;;;5074220;28;38508;-78
2022/05/17 13:24:26;;;;;;;4.93;2.17;;;26.20;99.90;;;;;;5094801;27;36680;-77